sensor_id;sensor_type;location;lat;lon;timestamp;P1;durP1;ratioP1;P2;durP2;ratioP2
68432;SDS011;55412;51.350;17.056;2022-10-31T00:03:46;13.75;;;5.55;;
68432;SDS011;55412;51.350;17.056;2022-10-31T00:06:13;14.73;;;4.80;;
68432;SDS011;55412;51.350;17.056;2022-10-31T00:08:43;11.70;;;5.45;;
68432;SDS011;55412;51.350;17.056;2022-10-31T00:11:16;11.48;;;4.28;;
68432;SDS011;55412;51.350;17.056;2022-10-31T00:13:42;13.57;;;4.60;;
68432;SDS011;55412;51.350;17.056;2022-10-31T00:16:15;12.18;;;4.88;;
68432;SDS011;55412;51.350;17.056;2022-10-31T00:18:54;11.67;;;4.67;;
68432;SDS011;55412;51.350;17.056;2022-10-31T00:21:23;12.18;;;3.75;;
68432;SDS011;55412;51.350;17.056;2022-10-31T00:23:50;13.55;;;4.55;;
68432;SDS011;55412;51.350;17.056;2022-10-31T00:26:19;15.05;;;4.45;;
68432;SDS011;55412;51.350;17.056;2022-10-31T00:28:46;10.43;;;4.10;;
68432;SDS011;55412;51.350;17.056;2022-10-31T00:31:12;12.63;;;4.50;;
68432;SDS011;55412;51.350;17.056;2022-10-31T00:33:39;15.00;;;4.93;;
68432;SDS011;55412;51.350;17.056;2022-10-31T00:36:07;11.70;;;3.55;;
68432;SDS011;55412;51.350;17.056;2022-10-31T00:38:40;12.68;;;4.28;;
68432;SDS011;55412;51.350;17.056;2022-10-31T00:41:07;14.20;;;4.82;;
68432;SDS011;55412;51.350;17.056;2022-10-31T00:43:34;11.00;;;4.13;;
68432;SDS011;55412;51.350;17.056;2022-10-31T00:46:00;14.30;;;4.55;;
68432;SDS011;55412;51.350;17.056;2022-10-31T00:48:26;16.48;;;4.00;;
68432;SDS011;55412;51.350;17.056;2022-10-31T00:50:52;14.10;;;5.15;;
68432;SDS011;55412;51.350;17.056;2022-10-31T00:53:18;12.73;;;4.20;;
68432;SDS011;55412;51.350;17.056;2022-10-31T00:55:44;13.13;;;4.60;;
68432;SDS011;55412;51.350;17.056;2022-10-31T00:58:10;15.05;;;4.40;;
68432;SDS011;55412;51.350;17.056;2022-10-31T01:00:36;13.50;;;4.18;;
68432;SDS011;55412;51.350;17.056;2022-10-31T01:03:02;11.15;;;4.22;;
68432;SDS011;55412;51.350;17.056;2022-10-31T01:05:28;14.00;;;4.45;;
68432;SDS011;55412;51.350;17.056;2022-10-31T01:07:55;12.27;;;3.90;;
68432;SDS011;55412;51.350;17.056;2022-10-31T01:10:21;12.27;;;3.65;;
68432;SDS011;55412;51.350;17.056;2022-10-31T01:12:47;10.20;;;3.70;;
68432;SDS011;55412;51.350;17.056;2022-10-31T01:15:15;12.65;;;4.55;;
68432;SDS011;55412;51.350;17.056;2022-10-31T01:17:46;11.30;;;3.95;;
68432;SDS011;55412;51.350;17.056;2022-10-31T01:20:13;10.40;;;3.20;;
68432;SDS011;55412;51.350;17.056;2022-10-31T01:22:40;12.30;;;4.15;;
68432;SDS011;55412;51.350;17.056;2022-10-31T01:25:07;7.28;;;2.92;;
68432;SDS011;55412;51.350;17.056;2022-10-31T01:27:34;11.00;;;3.92;;
68432;SDS011;55412;51.350;17.056;2022-10-31T01:30:00;10.15;;;3.40;;
68432;SDS011;55412;51.350;17.056;2022-10-31T01:32:27;13.07;;;3.53;;
68432;SDS011;55412;51.350;17.056;2022-10-31T01:34:56;13.18;;;4.15;;
68432;SDS011;55412;51.350;17.056;2022-10-31T01:37:21;14.27;;;4.13;;
68432;SDS011;55412;51.350;17.056;2022-10-31T01:39:48;7.72;;;3.13;;
68432;SDS011;55412;51.350;17.056;2022-10-31T01:42:21;14.07;;;3.88;;
68432;SDS011;55412;51.350;17.056;2022-10-31T01:44:50;14.77;;;3.83;;
68432;SDS011;55412;51.350;17.056;2022-10-31T01:47:26;12.13;;;4.95;;
68432;SDS011;55412;51.350;17.056;2022-10-31T01:50:12;11.32;;;4.10;;
68432;SDS011;55412;51.350;17.056;2022-10-31T01:52:58;16.85;;;5.47;;
68432;SDS011;55412;51.350;17.056;2022-10-31T01:55:30;15.10;;;4.55;;
68432;SDS011;55412;51.350;17.056;2022-10-31T01:58:06;11.37;;;4.37;;
68432;SDS011;55412;51.350;17.056;2022-10-31T02:00:38;16.00;;;4.18;;
68432;SDS011;55412;51.350;17.056;2022-10-31T02:03:06;12.75;;;4.13;;
68432;SDS011;55412;51.350;17.056;2022-10-31T02:05:32;14.38;;;3.92;;
68432;SDS011;55412;51.350;17.056;2022-10-31T02:08:04;17.00;;;3.92;;
68432;SDS011;55412;51.350;17.056;2022-10-31T02:10:37;11.57;;;3.70;;
68432;SDS011;55412;51.350;17.056;2022-10-31T02:13:05;10.82;;;4.50;;
68432;SDS011;55412;51.350;17.056;2022-10-31T02:15:32;14.48;;;4.30;;
68432;SDS011;55412;51.350;17.056;2022-10-31T02:18:00;8.68;;;2.78;;
68432;SDS011;55412;51.350;17.056;2022-10-31T02:20:32;10.45;;;3.10;;
68432;SDS011;55412;51.350;17.056;2022-10-31T02:35:21;18.85;;;5.05;;
68432;SDS011;55412;51.350;17.056;2022-10-31T02:38:07;15.33;;;5.33;;
68432;SDS011;55412;51.350;17.056;2022-10-31T02:44:05;10.88;;;4.25;;
68432;SDS011;55412;51.350;17.056;2022-10-31T02:46:49;12.18;;;4.70;;
68432;SDS011;55412;51.350;17.056;2022-10-31T02:52:16;14.70;;;4.07;;
68432;SDS011;55412;51.350;17.056;2022-10-31T02:54:49;12.93;;;4.45;;
68432;SDS011;55412;51.350;17.056;2022-10-31T02:57:15;12.10;;;5.43;;
68432;SDS011;55412;51.350;17.056;2022-10-31T02:59:48;10.85;;;3.92;;
68432;SDS011;55412;51.350;17.056;2022-10-31T03:08:19;8.23;;;4.05;;
68432;SDS011;55412;51.350;17.056;2022-10-31T03:11:01;19.42;;;5.38;;
68432;SDS011;55412;51.350;17.056;2022-10-31T03:16:18;10.95;;;4.00;;
68432;SDS011;55412;51.350;17.056;2022-10-31T03:19:10;11.47;;;3.60;;
68432;SDS011;55412;51.350;17.056;2022-10-31T03:22:01;15.05;;;4.15;;
68432;SDS011;55412;51.350;17.056;2022-10-31T03:24:39;14.65;;;3.80;;
68432;SDS011;55412;51.350;17.056;2022-10-31T03:27:07;16.20;;;4.15;;
68432;SDS011;55412;51.350;17.056;2022-10-31T03:29:38;12.73;;;4.25;;
68432;SDS011;55412;51.350;17.056;2022-10-31T03:32:06;11.50;;;4.20;;
68432;SDS011;55412;51.350;17.056;2022-10-31T03:34:38;11.48;;;3.63;;
68432;SDS011;55412;51.350;17.056;2022-10-31T03:37:08;9.40;;;4.07;;
68432;SDS011;55412;51.350;17.056;2022-10-31T03:39:38;12.70;;;4.30;;
68432;SDS011;55412;51.350;17.056;2022-10-31T03:42:22;13.65;;;4.38;;
68432;SDS011;55412;51.350;17.056;2022-10-31T03:44:55;15.27;;;4.90;;
68432;SDS011;55412;51.350;17.056;2022-10-31T03:47:33;13.50;;;4.60;;
68432;SDS011;55412;51.350;17.056;2022-10-31T03:50:01;12.63;;;4.93;;
68432;SDS011;55412;51.350;17.056;2022-10-31T03:55:55;14.57;;;4.65;;
68432;SDS011;55412;51.350;17.056;2022-10-31T03:58:53;12.07;;;3.60;;
68432;SDS011;55412;51.350;17.056;2022-10-31T04:01:28;8.15;;;3.40;;
68432;SDS011;55412;51.350;17.056;2022-10-31T04:03:57;11.07;;;4.55;;
68432;SDS011;55412;51.350;17.056;2022-10-31T04:06:24;12.55;;;3.85;;
68432;SDS011;55412;51.350;17.056;2022-10-31T04:08:52;11.90;;;4.50;;
68432;SDS011;55412;51.350;17.056;2022-10-31T04:11:25;13.57;;;4.57;;
68432;SDS011;55412;51.350;17.056;2022-10-31T04:14:07;17.65;;;3.90;;
68432;SDS011;55412;51.350;17.056;2022-10-31T04:16:37;11.75;;;4.93;;
68432;SDS011;55412;51.350;17.056;2022-10-31T04:19:08;13.23;;;4.75;;
68432;SDS011;55412;51.350;17.056;2022-10-31T04:21:35;14.63;;;4.30;;
68432;SDS011;55412;51.350;17.056;2022-10-31T04:24:01;12.47;;;3.83;;
68432;SDS011;55412;51.350;17.056;2022-10-31T04:26:27;16.65;;;4.28;;
68432;SDS011;55412;51.350;17.056;2022-10-31T04:28:53;17.38;;;4.28;;
68432;SDS011;55412;51.350;17.056;2022-10-31T04:31:19;16.67;;;4.03;;
68432;SDS011;55412;51.350;17.056;2022-10-31T04:33:46;12.90;;;4.03;;
68432;SDS011;55412;51.350;17.056;2022-10-31T04:36:12;13.07;;;4.53;;
68432;SDS011;55412;51.350;17.056;2022-10-31T04:38:38;15.07;;;4.82;;
68432;SDS011;55412;51.350;17.056;2022-10-31T04:41:04;10.15;;;3.63;;
68432;SDS011;55412;51.350;17.056;2022-10-31T04:43:30;16.10;;;4.20;;
68432;SDS011;55412;51.350;17.056;2022-10-31T04:45:56;10.75;;;3.95;;
68432;SDS011;55412;51.350;17.056;2022-10-31T04:48:22;11.47;;;4.37;;
68432;SDS011;55412;51.350;17.056;2022-10-31T04:50:48;10.20;;;3.85;;
68432;SDS011;55412;51.350;17.056;2022-10-31T04:53:14;12.27;;;4.55;;
68432;SDS011;55412;51.350;17.056;2022-10-31T04:55:40;10.63;;;3.83;;
68432;SDS011;55412;51.350;17.056;2022-10-31T04:58:06;8.63;;;3.33;;
68432;SDS011;55412;51.350;17.056;2022-10-31T05:00:32;13.87;;;4.30;;
68432;SDS011;55412;51.350;17.056;2022-10-31T05:02:58;11.73;;;3.83;;
68432;SDS011;55412;51.350;17.056;2022-10-31T05:05:25;14.85;;;3.15;;
68432;SDS011;55412;51.350;17.056;2022-10-31T05:07:55;11.85;;;3.80;;
68432;SDS011;55412;51.350;17.056;2022-10-31T05:10:26;7.47;;;3.47;;
68432;SDS011;55412;51.350;17.056;2022-10-31T05:12:54;9.48;;;3.45;;
68432;SDS011;55412;51.350;17.056;2022-10-31T05:15:29;9.23;;;3.60;;
68432;SDS011;55412;51.350;17.056;2022-10-31T05:17:56;11.30;;;3.90;;
68432;SDS011;55412;51.350;17.056;2022-10-31T05:20:23;11.30;;;4.53;;
68432;SDS011;55412;51.350;17.056;2022-10-31T05:22:53;12.20;;;4.07;;
68432;SDS011;55412;51.350;17.056;2022-10-31T05:25:21;11.73;;;3.90;;
68432;SDS011;55412;51.350;17.056;2022-10-31T05:27:49;10.32;;;3.40;;
68432;SDS011;55412;51.350;17.056;2022-10-31T05:30:18;8.13;;;3.17;;
68432;SDS011;55412;51.350;17.056;2022-10-31T05:32:52;12.75;;;4.05;;
68432;SDS011;55412;51.350;17.056;2022-10-31T05:35:20;13.77;;;3.00;;
68432;SDS011;55412;51.350;17.056;2022-10-31T05:37:48;12.00;;;3.60;;
68432;SDS011;55412;51.350;17.056;2022-10-31T05:40:15;11.40;;;3.92;;
68432;SDS011;55412;51.350;17.056;2022-10-31T05:42:43;11.82;;;3.80;;
68432;SDS011;55412;51.350;17.056;2022-10-31T05:45:11;8.90;;;3.60;;
68432;SDS011;55412;51.350;17.056;2022-10-31T05:47:40;10.93;;;3.23;;
68432;SDS011;55412;51.350;17.056;2022-10-31T05:50:06;11.48;;;3.47;;
68432;SDS011;55412;51.350;17.056;2022-10-31T05:52:34;13.48;;;3.00;;
68432;SDS011;55412;51.350;17.056;2022-10-31T05:55:00;18.75;;;3.95;;
68432;SDS011;55412;51.350;17.056;2022-10-31T05:57:27;9.80;;;4.05;;
68432;SDS011;55412;51.350;17.056;2022-10-31T05:59:54;10.90;;;3.27;;
68432;SDS011;55412;51.350;17.056;2022-10-31T06:02:21;9.25;;;4.05;;
68432;SDS011;55412;51.350;17.056;2022-10-31T06:07:43;9.23;;;3.30;;
68432;SDS011;55412;51.350;17.056;2022-10-31T06:10:09;10.07;;;3.65;;
68432;SDS011;55412;51.350;17.056;2022-10-31T06:12:36;10.30;;;2.80;;
68432;SDS011;55412;51.350;17.056;2022-10-31T06:15:05;10.20;;;3.30;;
68432;SDS011;55412;51.350;17.056;2022-10-31T06:17:33;10.15;;;2.95;;
68432;SDS011;55412;51.350;17.056;2022-10-31T06:20:03;10.55;;;3.28;;
68432;SDS011;55412;51.350;17.056;2022-10-31T06:22:30;13.98;;;3.78;;
68432;SDS011;55412;51.350;17.056;2022-10-31T06:24:57;10.70;;;3.57;;
68432;SDS011;55412;51.350;17.056;2022-10-31T06:27:23;10.80;;;4.00;;
68432;SDS011;55412;51.350;17.056;2022-10-31T06:29:50;10.25;;;3.45;;
68432;SDS011;55412;51.350;17.056;2022-10-31T06:32:16;11.40;;;3.60;;
68432;SDS011;55412;51.350;17.056;2022-10-31T06:34:42;10.70;;;2.90;;
68432;SDS011;55412;51.350;17.056;2022-10-31T06:37:11;7.90;;;3.20;;
68432;SDS011;55412;51.350;17.056;2022-10-31T06:39:37;10.05;;;3.53;;
68432;SDS011;55412;51.350;17.056;2022-10-31T06:42:03;9.57;;;3.75;;
68432;SDS011;55412;51.350;17.056;2022-10-31T06:44:30;10.02;;;3.67;;
68432;SDS011;55412;51.350;17.056;2022-10-31T06:46:56;13.25;;;3.85;;
68432;SDS011;55412;51.350;17.056;2022-10-31T06:49:25;11.03;;;4.67;;
68432;SDS011;55412;51.350;17.056;2022-10-31T06:51:51;10.10;;;3.45;;
68432;SDS011;55412;51.350;17.056;2022-10-31T06:54:17;11.27;;;4.22;;
68432;SDS011;55412;51.350;17.056;2022-10-31T06:56:45;11.13;;;3.80;;
68432;SDS011;55412;51.350;17.056;2022-10-31T06:59:12;10.82;;;3.55;;
68432;SDS011;55412;51.350;17.056;2022-10-31T07:01:39;10.47;;;3.60;;
68432;SDS011;55412;51.350;17.056;2022-10-31T07:04:05;11.15;;;3.63;;
68432;SDS011;55412;51.350;17.056;2022-10-31T07:06:32;11.82;;;3.90;;
68432;SDS011;55412;51.350;17.056;2022-10-31T07:08:58;14.75;;;3.92;;
68432;SDS011;55412;51.350;17.056;2022-10-31T07:11:24;17.27;;;3.67;;
68432;SDS011;55412;51.350;17.056;2022-10-31T07:13:50;11.25;;;3.20;;
68432;SDS011;55412;51.350;17.056;2022-10-31T07:16:16;12.65;;;3.58;;
68432;SDS011;55412;51.350;17.056;2022-10-31T07:18:42;8.13;;;2.63;;
68432;SDS011;55412;51.350;17.056;2022-10-31T07:21:08;10.70;;;3.35;;
68432;SDS011;55412;51.350;17.056;2022-10-31T07:23:34;9.10;;;3.43;;
68432;SDS011;55412;51.350;17.056;2022-10-31T07:26:00;9.10;;;3.58;;
68432;SDS011;55412;51.350;17.056;2022-10-31T07:28:26;9.50;;;3.45;;
68432;SDS011;55412;51.350;17.056;2022-10-31T07:30:53;8.68;;;3.40;;
68432;SDS011;55412;51.350;17.056;2022-10-31T07:33:23;9.30;;;3.58;;
68432;SDS011;55412;51.350;17.056;2022-10-31T07:35:53;15.03;;;3.67;;
68432;SDS011;55412;51.350;17.056;2022-10-31T07:38:19;11.35;;;3.35;;
68432;SDS011;55412;51.350;17.056;2022-10-31T07:40:48;12.45;;;3.95;;
68432;SDS011;55412;51.350;17.056;2022-10-31T07:43:20;9.55;;;3.22;;
68432;SDS011;55412;51.350;17.056;2022-10-31T07:45:53;10.55;;;3.38;;
68432;SDS011;55412;51.350;17.056;2022-10-31T07:48:20;16.83;;;3.87;;
68432;SDS011;55412;51.350;17.056;2022-10-31T07:50:46;15.00;;;3.85;;
68432;SDS011;55412;51.350;17.056;2022-10-31T07:53:13;11.38;;;3.55;;
68432;SDS011;55412;51.350;17.056;2022-10-31T07:55:39;13.18;;;3.03;;
68432;SDS011;55412;51.350;17.056;2022-10-31T07:58:10;8.35;;;3.40;;
68432;SDS011;55412;51.350;17.056;2022-10-31T08:00:42;10.37;;;3.23;;
68432;SDS011;55412;51.350;17.056;2022-10-31T08:03:12;9.35;;;3.45;;
68432;SDS011;55412;51.350;17.056;2022-10-31T08:05:42;8.77;;;3.72;;
68432;SDS011;55412;51.350;17.056;2022-10-31T08:08:11;10.63;;;3.60;;
68432;SDS011;55412;51.350;17.056;2022-10-31T08:10:38;9.52;;;3.53;;
68432;SDS011;55412;51.350;17.056;2022-10-31T08:13:06;10.40;;;3.30;;
68432;SDS011;55412;51.350;17.056;2022-10-31T08:15:36;12.50;;;3.13;;
68432;SDS011;55412;51.350;17.056;2022-10-31T08:18:14;9.20;;;2.80;;
68432;SDS011;55412;51.350;17.056;2022-10-31T08:20:41;13.68;;;3.33;;
68432;SDS011;55412;51.350;17.056;2022-10-31T08:23:09;17.13;;;4.72;;
68432;SDS011;55412;51.350;17.056;2022-10-31T08:25:37;12.53;;;3.47;;
68432;SDS011;55412;51.350;17.056;2022-10-31T08:28:03;17.60;;;3.28;;
68432;SDS011;55412;51.350;17.056;2022-10-31T08:30:31;10.52;;;3.40;;
68432;SDS011;55412;51.350;17.056;2022-10-31T08:35:27;22.83;;;3.72;;
68432;SDS011;55412;51.350;17.056;2022-10-31T08:37:53;11.30;;;3.70;;
68432;SDS011;55412;51.350;17.056;2022-10-31T08:40:20;14.20;;;3.47;;
68432;SDS011;55412;51.350;17.056;2022-10-31T08:42:47;10.32;;;3.70;;
68432;SDS011;55412;51.350;17.056;2022-10-31T08:45:24;12.98;;;3.80;;
68432;SDS011;55412;51.350;17.056;2022-10-31T08:47:50;13.15;;;3.63;;
68432;SDS011;55412;51.350;17.056;2022-10-31T08:50:16;6.60;;;3.20;;
68432;SDS011;55412;51.350;17.056;2022-10-31T08:52:43;10.98;;;3.45;;
68432;SDS011;55412;51.350;17.056;2022-10-31T08:55:09;9.73;;;3.38;;
68432;SDS011;55412;51.350;17.056;2022-10-31T08:57:35;17.17;;;3.60;;
68432;SDS011;55412;51.350;17.056;2022-10-31T09:00:01;23.15;;;3.55;;
68432;SDS011;55412;51.350;17.056;2022-10-31T09:02:30;10.87;;;3.40;;
68432;SDS011;55412;51.350;17.056;2022-10-31T09:04:56;11.77;;;3.35;;
68432;SDS011;55412;51.350;17.056;2022-10-31T09:07:22;17.88;;;3.92;;
68432;SDS011;55412;51.350;17.056;2022-10-31T09:09:48;10.23;;;3.30;;
68432;SDS011;55412;51.350;17.056;2022-10-31T09:12:14;9.30;;;3.40;;
68432;SDS011;55412;51.350;17.056;2022-10-31T09:14:40;14.93;;;3.60;;
68432;SDS011;55412;51.350;17.056;2022-10-31T09:17:06;11.93;;;3.70;;
68432;SDS011;55412;51.350;17.056;2022-10-31T09:19:32;11.25;;;3.90;;
68432;SDS011;55412;51.350;17.056;2022-10-31T09:21:58;9.13;;;3.55;;
68432;SDS011;55412;51.350;17.056;2022-10-31T09:24:24;9.47;;;4.07;;
68432;SDS011;55412;51.350;17.056;2022-10-31T09:26:50;13.23;;;3.80;;
68432;SDS011;55412;51.350;17.056;2022-10-31T09:29:16;13.68;;;3.95;;
68432;SDS011;55412;51.350;17.056;2022-10-31T09:31:42;11.27;;;4.30;;
68432;SDS011;55412;51.350;17.056;2022-10-31T09:34:08;10.83;;;4.20;;
68432;SDS011;55412;51.350;17.056;2022-10-31T09:36:34;10.50;;;4.47;;
68432;SDS011;55412;51.350;17.056;2022-10-31T09:39:00;10.48;;;3.90;;
68432;SDS011;55412;51.350;17.056;2022-10-31T09:41:42;14.25;;;3.80;;
68432;SDS011;55412;51.350;17.056;2022-10-31T09:52:48;11.88;;;4.82;;
68432;SDS011;55412;51.350;17.056;2022-10-31T09:55:48;21.15;;;3.88;;
68432;SDS011;55412;51.350;17.056;2022-10-31T09:58:26;13.82;;;3.67;;
68432;SDS011;55412;51.350;17.056;2022-10-31T10:00:56;11.20;;;3.37;;
68432;SDS011;55412;51.350;17.056;2022-10-31T10:03:31;15.07;;;4.05;;
68432;SDS011;55412;51.350;17.056;2022-10-31T10:08:44;19.67;;;3.30;;
68432;SDS011;55412;51.350;17.056;2022-10-31T10:14:01;11.00;;;3.63;;
68432;SDS011;55412;51.350;17.056;2022-10-31T10:19:44;11.02;;;4.45;;
68432;SDS011;55412;51.350;17.056;2022-10-31T10:22:38;13.48;;;4.30;;
68432;SDS011;55412;51.350;17.056;2022-10-31T10:25:26;9.65;;;4.43;;
68432;SDS011;55412;51.350;17.056;2022-10-31T10:31:04;13.70;;;4.57;;
68432;SDS011;55412;51.350;17.056;2022-10-31T10:34:14;12.27;;;5.00;;
68432;SDS011;55412;51.350;17.056;2022-10-31T10:39:40;9.85;;;4.85;;
68432;SDS011;55412;51.350;17.056;2022-10-31T10:42:11;9.53;;;4.63;;
68432;SDS011;55412;51.350;17.056;2022-10-31T10:44:59;13.15;;;4.65;;
68432;SDS011;55412;51.350;17.056;2022-10-31T10:47:52;11.38;;;4.82;;
68432;SDS011;55412;51.350;17.056;2022-10-31T10:50:47;27.83;;;6.28;;
68432;SDS011;55412;51.350;17.056;2022-10-31T10:53:38;10.98;;;4.57;;
68432;SDS011;55412;51.350;17.056;2022-10-31T10:56:48;10.67;;;4.73;;
68432;SDS011;55412;51.350;17.056;2022-10-31T10:59:34;7.60;;;4.63;;
68432;SDS011;55412;51.350;17.056;2022-10-31T11:02:03;20.52;;;5.85;;
68432;SDS011;55412;51.350;17.056;2022-10-31T11:04:42;11.35;;;4.95;;
68432;SDS011;55412;51.350;17.056;2022-10-31T11:07:10;12.88;;;4.88;;
68432;SDS011;55412;51.350;17.056;2022-10-31T11:09:37;16.77;;;5.10;;
68432;SDS011;55412;51.350;17.056;2022-10-31T11:12:11;12.65;;;5.50;;
68432;SDS011;55412;51.350;17.056;2022-10-31T11:14:58;12.50;;;5.75;;
68432;SDS011;55412;51.350;17.056;2022-10-31T11:17:33;11.48;;;4.97;;
68432;SDS011;55412;51.350;17.056;2022-10-31T11:22:46;10.50;;;5.63;;
68432;SDS011;55412;51.350;17.056;2022-10-31T11:30:50;21.40;;;6.00;;
68432;SDS011;55412;51.350;17.056;2022-10-31T11:33:32;9.77;;;5.45;;
68432;SDS011;55412;51.350;17.056;2022-10-31T11:36:15;11.97;;;5.50;;
68432;SDS011;55412;51.350;17.056;2022-10-31T11:39:16;17.05;;;5.25;;
68432;SDS011;55412;51.350;17.056;2022-10-31T11:41:47;10.73;;;5.10;;
68432;SDS011;55412;51.350;17.056;2022-10-31T11:46:46;15.80;;;6.45;;
68432;SDS011;55412;51.350;17.056;2022-10-31T11:51:51;9.30;;;5.10;;
68432;SDS011;55412;51.350;17.056;2022-10-31T11:54:28;11.40;;;4.93;;
68432;SDS011;55412;51.350;17.056;2022-10-31T11:56:59;12.93;;;5.43;;
68432;SDS011;55412;51.350;17.056;2022-10-31T11:59:29;9.75;;;5.43;;
68432;SDS011;55412;51.350;17.056;2022-10-31T12:01:58;7.57;;;5.73;;
68432;SDS011;55412;51.350;17.056;2022-10-31T12:04:30;18.27;;;5.15;;
68432;SDS011;55412;51.350;17.056;2022-10-31T12:07:13;14.85;;;5.03;;
68432;SDS011;55412;51.350;17.056;2022-10-31T12:09:40;9.38;;;4.50;;
68432;SDS011;55412;51.350;17.056;2022-10-31T12:13:11;16.40;;;5.93;;
68432;SDS011;55412;51.350;17.056;2022-10-31T12:18:11;11.38;;;5.38;;
68432;SDS011;55412;51.350;17.056;2022-10-31T12:20:59;9.45;;;5.05;;
68432;SDS011;55412;51.350;17.056;2022-10-31T12:29:47;13.70;;;4.60;;
68432;SDS011;55412;51.350;17.056;2022-10-31T12:38:00;12.65;;;4.70;;
68432;SDS011;55412;51.350;17.056;2022-10-31T13:02:20;10.63;;;3.67;;
68432;SDS011;55412;51.350;17.056;2022-10-31T13:05:10;8.95;;;3.70;;
68432;SDS011;55412;51.350;17.056;2022-10-31T13:08:07;12.25;;;3.78;;
68432;SDS011;55412;51.350;17.056;2022-10-31T13:10:54;9.30;;;3.38;;
68432;SDS011;55412;51.350;17.056;2022-10-31T13:13:36;12.63;;;4.73;;
68432;SDS011;55412;51.350;17.056;2022-10-31T13:16:28;10.10;;;3.72;;
68432;SDS011;55412;51.350;17.056;2022-10-31T13:19:28;12.25;;;4.25;;
68432;SDS011;55412;51.350;17.056;2022-10-31T13:22:08;14.13;;;3.63;;
68432;SDS011;55412;51.350;17.056;2022-10-31T13:30:29;15.40;;;3.42;;
68432;SDS011;55412;51.350;17.056;2022-10-31T13:33:07;11.13;;;3.70;;
68432;SDS011;55412;51.350;17.056;2022-10-31T13:38:32;10.10;;;3.50;;
68432;SDS011;55412;51.350;17.056;2022-10-31T13:44:26;9.68;;;4.25;;
68432;SDS011;55412;51.350;17.056;2022-10-31T13:46:54;15.20;;;4.07;;
68432;SDS011;55412;51.350;17.056;2022-10-31T13:54:40;10.70;;;3.27;;
68432;SDS011;55412;51.350;17.056;2022-10-31T13:57:18;10.10;;;3.70;;
68432;SDS011;55412;51.350;17.056;2022-10-31T13:59:54;10.13;;;4.00;;
68432;SDS011;55412;51.350;17.056;2022-10-31T14:02:28;19.65;;;6.88;;
68432;SDS011;55412;51.350;17.056;2022-10-31T14:05:06;12.02;;;5.75;;
68432;SDS011;55412;51.350;17.056;2022-10-31T14:07:51;13.80;;;7.30;;
68432;SDS011;55412;51.350;17.056;2022-10-31T14:10:24;12.43;;;6.72;;
68432;SDS011;55412;51.350;17.056;2022-10-31T14:16:29;24.77;;;4.53;;
68432;SDS011;55412;51.350;17.056;2022-10-31T14:19:01;12.93;;;3.95;;
68432;SDS011;55412;51.350;17.056;2022-10-31T14:21:40;12.23;;;4.13;;
68432;SDS011;55412;51.350;17.056;2022-10-31T14:29:39;19.48;;;4.15;;
68432;SDS011;55412;51.350;17.056;2022-10-31T14:34:43;13.30;;;4.13;;
68432;SDS011;55412;51.350;17.056;2022-10-31T14:40:39;11.75;;;3.55;;
68432;SDS011;55412;51.350;17.056;2022-10-31T14:52:40;10.75;;;5.07;;
68432;SDS011;55412;51.350;17.056;2022-10-31T14:55:14;11.30;;;4.50;;
68432;SDS011;55412;51.350;17.056;2022-10-31T14:57:49;12.82;;;4.90;;
68432;SDS011;55412;51.350;17.056;2022-10-31T15:00:21;14.40;;;4.15;;
68432;SDS011;55412;51.350;17.056;2022-10-31T15:05:27;20.45;;;6.43;;
68432;SDS011;55412;51.350;17.056;2022-10-31T15:07:55;19.48;;;7.30;;
68432;SDS011;55412;51.350;17.056;2022-10-31T15:10:24;31.70;;;9.43;;
68432;SDS011;55412;51.350;17.056;2022-10-31T15:15:56;31.07;;;11.13;;
68432;SDS011;55412;51.350;17.056;2022-10-31T15:18:26;25.05;;;8.80;;
68432;SDS011;55412;51.350;17.056;2022-10-31T15:20:54;35.15;;;13.80;;
68432;SDS011;55412;51.350;17.056;2022-10-31T15:23:23;47.75;;;18.10;;
68432;SDS011;55412;51.350;17.056;2022-10-31T15:25:59;41.25;;;15.90;;
68432;SDS011;55412;51.350;17.056;2022-10-31T15:28:26;28.80;;;12.40;;
68432;SDS011;55412;51.350;17.056;2022-10-31T15:30:55;30.55;;;11.68;;
68432;SDS011;55412;51.350;17.056;2022-10-31T15:33:39;15.25;;;6.30;;
68432;SDS011;55412;51.350;17.056;2022-10-31T15:36:17;16.10;;;5.80;;
68432;SDS011;55412;51.350;17.056;2022-10-31T15:38:45;14.95;;;5.47;;
68432;SDS011;55412;51.350;17.056;2022-10-31T15:41:22;19.97;;;5.17;;
68432;SDS011;55412;51.350;17.056;2022-10-31T15:43:54;12.02;;;5.05;;
68432;SDS011;55412;51.350;17.056;2022-10-31T15:46:28;12.88;;;5.10;;
68432;SDS011;55412;51.350;17.056;2022-10-31T15:48:55;13.05;;;5.18;;
68432;SDS011;55412;51.350;17.056;2022-10-31T15:51:26;19.45;;;6.28;;
68432;SDS011;55412;51.350;17.056;2022-10-31T15:53:58;13.73;;;5.30;;
68432;SDS011;55412;51.350;17.056;2022-10-31T15:56:28;18.52;;;6.55;;
68432;SDS011;55412;51.350;17.056;2022-10-31T15:58:57;13.88;;;5.65;;
68432;SDS011;55412;51.350;17.056;2022-10-31T16:01:29;14.50;;;5.20;;
68432;SDS011;55412;51.350;17.056;2022-10-31T16:06:38;15.00;;;4.83;;
68432;SDS011;55412;51.350;17.056;2022-10-31T16:09:18;14.50;;;4.63;;
68432;SDS011;55412;51.350;17.056;2022-10-31T16:11:48;10.70;;;5.32;;
68432;SDS011;55412;51.350;17.056;2022-10-31T16:14:18;14.93;;;4.65;;
68432;SDS011;55412;51.350;17.056;2022-10-31T16:16:50;12.85;;;5.07;;
68432;SDS011;55412;51.350;17.056;2022-10-31T16:19:21;16.03;;;5.53;;
68432;SDS011;55412;51.350;17.056;2022-10-31T16:22:08;16.92;;;5.20;;
68432;SDS011;55412;51.350;17.056;2022-10-31T16:24:45;20.63;;;7.20;;
68432;SDS011;55412;51.350;17.056;2022-10-31T16:28:26;20.73;;;5.60;;
68432;SDS011;55412;51.350;17.056;2022-10-31T16:30:42;13.20;;;6.22;;
68432;SDS011;55412;51.350;17.056;2022-10-31T16:35:52;12.13;;;5.68;;
68432;SDS011;55412;51.350;17.056;2022-10-31T16:38:19;16.40;;;6.47;;
68432;SDS011;55412;51.350;17.056;2022-10-31T16:40:45;17.40;;;7.00;;
68432;SDS011;55412;51.350;17.056;2022-10-31T16:43:12;16.60;;;7.20;;
68432;SDS011;55412;51.350;17.056;2022-10-31T16:45:45;22.13;;;7.77;;
68432;SDS011;55412;51.350;17.056;2022-10-31T16:48:18;19.90;;;8.15;;
68432;SDS011;55412;51.350;17.056;2022-10-31T16:50:47;21.15;;;9.77;;
68432;SDS011;55412;51.350;17.056;2022-10-31T16:53:15;20.83;;;9.13;;
68432;SDS011;55412;51.350;17.056;2022-10-31T16:55:44;22.85;;;10.25;;
68432;SDS011;55412;51.350;17.056;2022-10-31T16:58:29;21.90;;;9.90;;
68432;SDS011;55412;51.350;17.056;2022-10-31T17:01:00;22.85;;;8.95;;
68432;SDS011;55412;51.350;17.056;2022-10-31T17:03:29;20.80;;;8.70;;
68432;SDS011;55412;51.350;17.056;2022-10-31T17:05:56;25.08;;;10.55;;
68432;SDS011;55412;51.350;17.056;2022-10-31T17:08:22;27.88;;;11.63;;
68432;SDS011;55412;51.350;17.056;2022-10-31T17:10:52;22.17;;;10.57;;
68432;SDS011;55412;51.350;17.056;2022-10-31T17:13:27;23.63;;;12.00;;
68432;SDS011;55412;51.350;17.056;2022-10-31T17:15:59;26.15;;;11.05;;
68432;SDS011;55412;51.350;17.056;2022-10-31T17:18:28;22.45;;;10.85;;
68432;SDS011;55412;51.350;17.056;2022-10-31T17:20:56;25.52;;;11.23;;
68432;SDS011;55412;51.350;17.056;2022-10-31T17:23:27;30.17;;;13.13;;
68432;SDS011;55412;51.350;17.056;2022-10-31T17:25:54;27.90;;;15.02;;
68432;SDS011;55412;51.350;17.056;2022-10-31T17:28:21;43.33;;;17.65;;
68432;SDS011;55412;51.350;17.056;2022-10-31T17:30:47;42.10;;;18.35;;
68432;SDS011;55412;51.350;17.056;2022-10-31T17:33:14;36.08;;;16.85;;